Time;durP1;ratioP1;P1;durP2;ratioP2;P2;SDS_P1;SDS_P2;PMS_P1;PMS_P2;Temp;Humidity;BMP_temperature;BMP_pressure;BME280_temperature;BME280_humidity;BME280_pressure;Samples;Min_cycle;Max_cycle;Signal;HPM_P1;HPM_P2
2021/07/08 00:02:07;;;;;;;2.40;1.15;;;19.80;99.90;;;;;;5075530;28;20025;-64
2021/07/08 00:04:34;;;;;;;1.67;1.08;;;19.80;99.90;;;;;;5075673;28;20032;-64
2021/07/08 00:07:00;;;;;;;2.50;0.98;;;19.80;99.90;;;;;;5075042;28;20029;-63
2021/07/08 00:09:26;;;;;;;2.72;1.17;;;19.80;99.90;;;;;;5074997;28;20021;-64
2021/07/08 00:11:51;;;;;;;1.92;0.93;;;19.80;99.90;;;;;;5074454;28;20032;-64
2021/07/08 00:14:17;;;;;;;2.40;1.10;;;19.80;99.90;;;;;;5074746;28;20059;-64
2021/07/08 00:16:43;;;;;;;3.53;1.33;;;19.80;99.90;;;;;;5075083;28;20036;-64
2021/07/08 00:19:09;;;;;;;1.35;0.93;;;19.90;99.90;;;;;;5075043;28;20024;-65
2021/07/08 00:21:36;;;;;;;2.03;1.15;;;19.80;99.90;;;;;;5074309;28;20028;-65
2021/07/08 00:24:02;;;;;;;2.28;1.20;;;19.70;99.90;;;;;;5074702;28;20045;-66
2021/07/08 00:26:28;;;;;;;3.22;1.20;;;19.70;99.90;;;;;;5073089;28;20039;-64
2021/07/08 00:28:54;;;;;;;1.08;0.77;;;19.60;99.90;;;;;;5074382;28;20107;-64
2021/07/08 00:31:20;;;;;;;1.48;1.10;;;19.60;99.90;;;;;;5080136;28;20496;-64
2021/07/08 00:33:46;;;;;;;1.50;0.98;;;19.50;99.90;;;;;;5077102;28;20035;-65
2021/07/08 00:36:12;;;;;;;;;;;19.60;99.90;;;;;;5074749;28;20052;-65
2021/07/08 00:38:38;;;;;;;2.75;1.25;;;19.60;99.90;;;;;;5074210;28;19912;-65
2021/07/08 00:41:03;;;;;;;2.17;1.00;;;19.60;99.90;;;;;;5073944;28;20032;-65
2021/07/08 00:43:31;;;;;;;2.20;0.98;;;19.60;99.90;;;;;;5074036;28;20025;-65
2021/07/08 00:45:57;;;;;;;2.75;1.23;;;19.60;99.90;;;;;;5073788;28;20100;-65
2021/07/08 00:48:24;;;;;;;1.73;1.13;;;19.50;99.90;;;;;;5074110;28;20051;-65
2021/07/08 00:50:50;;;;;;;2.63;1.05;;;19.50;99.90;;;;;;5074110;28;20032;-65
2021/07/08 00:53:18;;;;;;;1.48;0.95;;;19.50;99.90;;;;;;5074480;28;20029;-64
2021/07/08 00:55:52;;;;;;;2.42;0.98;;;19.50;99.90;;;;;;5073719;28;20115;-64
2021/07/08 00:58:17;;;;;;;2.03;1.15;;;19.50;99.90;;;;;;5072486;28;20032;-65
2021/07/08 01:00:44;;;;;;;1.33;0.90;;;19.50;99.90;;;;;;5073510;28;20100;-65
2021/07/08 01:03:10;;;;;;;;;;;19.50;99.90;;;;;;5074333;28;20460;-65
2021/07/08 01:05:49;;;;;;;1.10;0.80;;;19.40;99.90;;;;;;5073470;28;20284;-65
2021/07/08 01:08:15;;;;;;;7.75;1.40;;;19.40;99.90;;;;;;5073783;28;20036;-65
2021/07/08 01:10:42;;;;;;;1.55;0.88;;;19.50;99.90;;;;;;5073507;28;20403;-65
2021/07/08 01:13:08;;;;;;;1.40;0.90;;;19.50;99.90;;;;;;5073842;28;20477;-65
2021/07/08 01:15:34;;;;;;;1.08;0.90;;;19.50;99.90;;;;;;5073359;28;20035;-65
2021/07/08 01:18:00;;;;;;;2.72;0.85;;;19.50;99.90;;;;;;5073335;28;20510;-65
2021/07/08 01:20:28;;;;;;;3.58;1.10;;;19.50;99.90;;;;;;5073322;28;20106;-65
2021/07/08 01:22:58;;;;;;;3.38;0.90;;;19.50;99.90;;;;;;5073104;28;20027;-65
2021/07/08 01:25:27;;;;;;;2.05;1.08;;;19.60;99.90;;;;;;5072865;28;20027;-65
2021/07/08 01:27:54;;;;;;;5.20;1.10;;;19.60;99.90;;;;;;5074265;28;20052;-65
2021/07/08 01:30:21;;;;;;;2.03;1.05;;;19.50;99.90;;;;;;5073919;28;20492;-65
2021/07/08 01:32:47;;;;;;;1.77;0.85;;;19.40;99.90;;;;;;5073375;28;20099;-65
2021/07/08 01:35:13;;;;;;;6.03;1.50;;;19.30;99.90;;;;;;5073629;28;20106;-65
2021/07/08 01:37:39;;;;;;;2.00;1.00;;;19.30;99.90;;;;;;5073663;28;20058;-64
2021/07/08 01:40:07;;;;;;;1.58;1.10;;;19.30;99.90;;;;;;5073910;28;20024;-65
2021/07/08 01:42:33;;;;;;;2.60;0.90;;;19.20;99.90;;;;;;5073770;28;20119;-65
2021/07/08 01:44:58;;;;;;;5.00;1.45;;;19.20;99.90;;;;;;5073117;28;20175;-63
2021/07/08 01:47:24;;;;;;;1.27;0.77;;;19.20;99.90;;;;;;5072072;28;20055;-65
2021/07/08 01:49:50;;;;;;;2.20;0.90;;;19.20;99.90;;;;;;5073032;28;20028;-65
2021/07/08 01:52:16;;;;;;;;;;;19.20;99.90;;;;;;5073469;28;20051;-65
2021/07/08 01:54:42;;;;;;;3.33;1.00;;;19.20;99.90;;;;;;5073070;28;19909;-64
2021/07/08 01:57:07;;;;;;;3.72;1.00;;;19.20;99.90;;;;;;5072986;28;20028;-64
2021/07/08 01:59:33;;;;;;;2.40;1.20;;;19.20;99.90;;;;;;5071636;28;20186;-64
2021/07/08 02:01:59;;;;;;;5.00;1.30;;;19.20;99.90;;;;;;5072699;28;20043;-64
2021/07/08 02:04:25;;;;;;;3.55;1.50;;;19.20;99.90;;;;;;5071508;28;20426;-64
2021/07/08 02:06:51;;;;;;;1.00;0.90;;;19.10;99.90;;;;;;5073501;28;20039;-64
2021/07/08 02:09:16;;;;;;;4.05;1.20;;;19.20;99.90;;;;;;5073476;28;20031;-64
2021/07/08 02:11:42;;;;;;;4.50;1.10;;;19.10;99.90;;;;;;5072998;28;20024;-64
2021/07/08 02:14:08;;;;;;;2.30;1.08;;;19.10;99.90;;;;;;5073048;28;20032;-64
2021/07/08 02:16:35;;;;;;;2.03;1.20;;;19.10;99.90;;;;;;5072768;28;20033;-64
2021/07/08 02:19:01;;;;;;;1.63;1.10;;;19.00;99.90;;;;;;5072894;28;20043;-64
2021/07/08 02:21:26;;;;;;;1.48;1.00;;;19.00;99.90;;;;;;5072804;28;20024;-65
2021/07/08 02:23:52;;;;;;;2.50;0.80;;;19.00;99.90;;;;;;5073498;28;20042;-65
2021/07/08 02:26:18;;;;;;;4.00;1.00;;;19.00;99.90;;;;;;5072517;28;20091;-64
2021/07/08 02:28:43;;;;;;;1.85;1.10;;;19.10;99.90;;;;;;5072560;28;20426;-65
2021/07/08 02:31:10;;;;;;;2.40;1.25;;;19.10;99.90;;;;;;5072497;28;20036;-65
2021/07/08 02:33:36;;;;;;;3.80;1.02;;;19.20;99.90;;;;;;5072611;28;20519;-65
2021/07/08 02:36:03;;;;;;;3.45;1.30;;;19.20;99.90;;;;;;5074805;28;20047;-65
2021/07/08 02:38:29;;;;;;;4.03;1.25;;;19.20;99.90;;;;;;5076538;28;20473;-65
2021/07/08 02:40:55;;;;;;;1.75;1.00;;;19.20;99.90;;;;;;5076156;28;20461;-64
2021/07/08 02:43:21;;;;;;;2.72;1.20;;;19.20;99.90;;;;;;5075101;28;20078;-64
2021/07/08 02:45:46;;;;;;;2.75;1.00;;;19.10;99.90;;;;;;5076125;28;20021;-64
2021/07/08 02:48:17;;;;;;;1.88;0.98;;;19.00;99.90;;;;;;5076611;28;20028;-64
2021/07/08 02:50:45;;;;;;;7.60;1.23;;;18.90;99.90;;;;;;5076867;28;20031;-64
2021/07/08 02:53:11;;;;;;;2.38;1.17;;;18.80;99.90;;;;;;5076195;28;20071;-64
2021/07/08 02:55:38;;;;;;;5.20;1.35;;;18.80;99.90;;;;;;5076214;28;20028;-64
2021/07/08 02:58:05;;;;;;;1.17;0.90;;;18.70;99.90;;;;;;5076081;28;20449;-65
2021/07/08 03:00:31;;;;;;;1.85;1.05;;;18.60;99.90;;;;;;5076131;28;20063;-64
2021/07/08 03:02:57;;;;;;;8.18;1.40;;;18.70;99.90;;;;;;5076088;28;20024;-64
2021/07/08 03:05:23;;;;;;;2.58;1.15;;;18.70;99.90;;;;;;5076072;28;20033;-64
2021/07/08 03:07:49;;;;;;;1.23;0.95;;;18.80;99.90;;;;;;5076195;28;20052;-64
2021/07/08 03:10:16;;;;;;;2.47;1.42;;;18.80;99.90;;;;;;5076275;28;20021;-64
2021/07/08 03:12:42;;;;;;;2.35;1.13;;;18.90;99.90;;;;;;5078121;28;20028;-64
2021/07/08 03:15:10;;;;;;;2.67;1.38;;;18.90;99.90;;;;;;5077904;28;20358;-64
2021/07/08 03:17:37;;;;;;;4.10;1.27;;;18.90;99.90;;;;;;5075860;28;20055;-64
2021/07/08 03:20:06;;;;;;;2.15;1.20;;;19.00;99.90;;;;;;5075761;28;20052;-64
2021/07/08 03:22:31;;;;;;;6.63;1.52;;;19.00;99.90;;;;;;5075594;28;20017;-64
2021/07/08 03:24:57;;;;;;;4.05;1.40;;;19.00;99.90;;;;;;5075978;28;20028;-64
2021/07/08 03:27:23;;;;;;;4.07;0.98;;;19.00;99.90;;;;;;5075706;28;20037;-64
2021/07/08 03:29:48;;;;;;;5.53;1.63;;;19.00;99.90;;;;;;5075742;28;20043;-64
2021/07/08 03:32:14;;;;;;;4.20;1.65;;;19.10;99.90;;;;;;5075894;28;20453;-64
2021/07/08 03:34:40;;;;;;;4.70;1.70;;;19.10;99.90;;;;;;5076543;28;20016;-64
2021/07/08 03:37:06;;;;;;;4.13;1.55;;;19.10;99.90;;;;;;5075258;28;20473;-64
2021/07/08 03:39:32;;;;;;;5.72;1.50;;;19.00;99.90;;;;;;5075272;28;20028;-64
2021/07/08 03:41:58;;;;;;;5.38;1.65;;;18.90;99.90;;;;;;5075503;28;20032;-64
2021/07/08 03:44:24;;;;;;;2.30;1.70;;;18.80;99.90;;;;;;5075550;28;20039;-64
2021/07/08 03:46:49;;;;;;;3.33;1.40;;;18.80;99.90;;;;;;5073840;28;20158;-65
2021/07/08 03:49:15;;;;;;;2.72;1.23;;;18.70;99.90;;;;;;5075130;28;20025;-63
2021/07/08 03:51:41;;;;;;;2.20;1.50;;;18.60;99.90;;;;;;5074950;28;20056;-63
2021/07/08 03:54:06;;;;;;;3.08;1.15;;;18.60;99.90;;;;;;5073560;28;20093;-64
2021/07/08 03:56:32;;;;;;;4.20;1.40;;;18.40;99.90;;;;;;5074894;28;20470;-64
2021/07/08 03:58:57;;;;;;;3.90;1.90;;;18.40;99.90;;;;;;5074818;28;20032;-64
2021/07/08 04:01:25;;;;;;;2.47;1.58;;;18.40;99.90;;;;;;5074804;28;20431;-64
2021/07/08 04:03:51;;;;;;;3.95;1.40;;;18.40;99.90;;;;;;5074912;28;20103;-64
2021/07/08 04:06:17;;;;;;;2.90;1.33;;;18.40;99.90;;;;;;5073371;28;20081;-64
2021/07/08 04:08:43;;;;;;;2.67;1.30;;;18.50;99.90;;;;;;5074940;28;20419;-64
2021/07/08 04:11:09;;;;;;;3.78;1.67;;;18.40;99.90;;;;;;5075302;28;20481;-64
2021/07/08 04:13:34;;;;;;;2.83;1.38;;;18.40;99.90;;;;;;5074011;28;20392;-64
2021/07/08 04:16:00;;;;;;;5.68;1.40;;;18.30;99.90;;;;;;5073229;28;20031;-64
2021/07/08 04:18:26;;;;;;;3.67;1.30;;;18.30;99.90;;;;;;5074885;28;20036;-64
2021/07/08 04:20:52;;;;;;;3.45;1.35;;;18.40;99.90;;;;;;5074636;28;20024;-65
2021/07/08 04:23:18;;;;;;;6.57;1.48;;;18.50;99.90;;;;;;5074646;28;20450;-65
2021/07/08 04:25:44;;;;;;;2.88;1.60;;;18.50;99.90;;;;;;5073082;28;20029;-65
2021/07/08 04:28:11;;;;;;;2.55;1.40;;;18.60;99.90;;;;;;5075052;28;20017;-65
2021/07/08 04:30:40;;;;;;;2.05;1.35;;;18.60;99.90;;;;;;5074718;28;20029;-65
2021/07/08 04:33:06;;;;;;;3.35;1.27;;;18.70;99.90;;;;;;5074900;28;20095;-65
2021/07/08 04:35:41;;;;;;;2.45;1.63;;;18.70;99.90;;;;;;5074428;28;20024;-65
2021/07/08 04:38:08;;;;;;;3.70;1.73;;;18.70;99.90;;;;;;5074217;28;20425;-65
2021/07/08 04:40:35;;;;;;;6.15;1.95;;;18.70;99.90;;;;;;5074682;28;20025;-65
2021/07/08 04:43:01;;;;;;;3.42;1.63;;;18.70;99.90;;;;;;5074316;28;20066;-63
2021/07/08 04:45:29;;;;;;;4.28;1.83;;;18.80;99.90;;;;;;5074118;28;20028;-63
2021/07/08 04:47:54;;;;;;;4.97;2.00;;;18.80;99.90;;;;;;5074639;28;20028;-62
2021/07/08 04:50:21;;;;;;;5.75;2.00;;;18.80;99.90;;;;;;5074203;28;20039;-63
2021/07/08 04:52:48;;;;;;;4.38;2.10;;;19.00;99.90;;;;;;5074004;28;20029;-63
2021/07/08 04:55:16;;;;;;;3.50;1.80;;;19.20;99.90;;;;;;5073625;28;20035;-64
2021/07/08 04:57:42;;;;;;;4.50;2.38;;;19.10;99.90;;;;;;5073959;28;20535;-64
2021/07/08 05:00:10;;;;;;;5.03;1.95;;;19.20;99.90;;;;;;5074205;28;20024;-64
2021/07/08 05:02:37;;;;;;;5.70;2.25;;;19.20;99.90;;;;;;5072980;28;20489;-65
2021/07/08 05:05:05;;;;;;;3.20;1.30;;;19.20;99.90;;;;;;5073549;28;20042;-65
2021/07/08 05:07:30;;;;;;;4.22;1.80;;;19.20;99.90;;;;;;5072940;28;20499;-65
2021/07/08 05:09:56;;;;;;;2.13;1.63;;;19.10;99.90;;;;;;5073813;28;20052;-65
2021/07/08 05:12:22;;;;;;;3.30;2.20;;;19.20;99.90;;;;;;5073701;28;20066;-65
2021/07/08 05:14:47;;;;;;;8.73;2.13;;;19.20;99.90;;;;;;5073532;28;20500;-65
2021/07/08 05:17:13;;;;;;;4.93;1.92;;;19.10;99.90;;;;;;5073445;28;20032;-65
2021/07/08 05:19:39;;;;;;;5.50;1.90;;;19.10;99.90;;;;;;5073267;28;20017;-65
2021/07/08 05:22:04;;;;;;;4.18;1.65;;;19.10;99.90;;;;;;5073066;28;20032;-64
2021/07/08 05:24:31;;;;;;;4.78;1.88;;;19.00;99.90;;;;;;5073598;28;20380;-64
2021/07/08 05:26:57;;;;;;;4.82;1.70;;;19.00;99.90;;;;;;5072902;28;20029;-64
2021/07/08 05:29:23;;;;;;;6.43;1.45;;;19.00;99.90;;;;;;5073112;28;20024;-66
2021/07/08 05:31:50;;;;;;;3.63;2.00;;;18.90;99.90;;;;;;5073059;28;20024;-65
2021/07/08 05:34:16;;;;;;;3.53;1.85;;;18.90;99.90;;;;;;5073527;28;20051;-66
2021/07/08 05:36:42;;;;;;;5.00;1.77;;;18.80;99.90;;;;;;5072998;28;20031;-65
2021/07/08 05:39:07;;;;;;;5.00;2.00;;;18.80;99.90;;;;;;5073038;28;20036;-64
2021/07/08 05:41:33;;;;;;;4.57;2.00;;;18.70;99.90;;;;;;5073877;28;20075;-66
2021/07/08 05:43:59;;;;;;;3.47;1.90;;;18.70;99.90;;;;;;5074444;28;20032;-66
2021/07/08 05:46:26;;;;;;;6.50;2.13;;;18.70;99.90;;;;;;5073827;28;20068;-67
2021/07/08 05:48:53;;;;;;;4.28;1.75;;;18.70;99.90;;;;;;5074531;28;20066;-67
2021/07/08 05:51:18;;;;;;;5.25;1.85;;;18.80;99.90;;;;;;5074136;28;20021;-68
2021/07/08 05:53:44;;;;;;;11.00;2.47;;;18.80;99.90;;;;;;5072908;28;20021;-69
2021/07/08 05:56:10;;;;;;;4.05;1.70;;;18.80;99.90;;;;;;5071615;28;20038;-67
2021/07/08 05:58:35;;;;;;;4.72;1.85;;;18.90;99.90;;;;;;5072818;28;20469;-69
2021/07/08 06:01:01;;;;;;;5.70;2.03;;;19.00;99.90;;;;;;5072697;28;20048;-68
2021/07/08 06:03:27;;;;;;;4.68;2.38;;;19.10;99.90;;;;;;5071574;28;20016;-68
2021/07/08 06:05:52;;;;;;;2.05;1.55;;;19.20;99.90;;;;;;5072786;28;20021;-69
2021/07/08 06:08:18;;;;;;;5.55;2.05;;;19.20;99.90;;;;;;5072136;28;20384;-69
2021/07/08 06:10:44;;;;;;;4.00;1.70;;;19.30;99.90;;;;;;5073260;28;20048;-68
2021/07/08 06:13:11;;;;;;;2.00;1.80;;;19.40;99.90;;;;;;5077077;28;20484;-68
2021/07/08 06:15:37;;;;;;;5.20;1.70;;;19.50;99.90;;;;;;5076582;28;20036;-68
2021/07/08 06:18:04;;;;;;;4.25;2.10;;;19.50;99.90;;;;;;5075215;28;20021;-68
2021/07/08 06:20:30;;;;;;;2.83;1.50;;;19.60;99.90;;;;;;5076285;28;20067;-67
2021/07/08 06:22:56;;;;;;;;;;;19.70;99.90;;;;;;5077333;28;20178;-68
2021/07/08 06:25:23;;;;;;;4.75;2.10;;;19.70;99.90;;;;;;5076582;28;20380;-68
2021/07/08 06:27:49;;;;;;;6.00;1.50;;;19.70;99.90;;;;;;5074957;28;20025;-68
2021/07/08 06:30:15;;;;;;;4.68;2.33;;;19.70;99.90;;;;;;5075163;28;20036;-67
2021/07/08 06:32:41;;;;;;;4.50;2.10;;;19.70;99.90;;;;;;5076349;28;20103;-66
2021/07/08 06:35:08;;;;;;;4.07;2.22;;;19.80;99.90;;;;;;5076229;28;20081;-65
2021/07/08 06:37:35;;;;;;;7.18;2.60;;;19.90;99.90;;;;;;5076081;28;20029;-65
2021/07/08 06:40:01;;;;;;;5.45;2.03;;;20.00;99.90;;;;;;5076528;28;20070;-65
2021/07/08 06:42:26;;;;;;;4.40;1.58;;;20.10;99.90;;;;;;5076009;28;20028;-66
2021/07/08 06:44:52;;;;;;;2.95;1.70;;;20.10;99.90;;;;;;5075958;28;20031;-66
2021/07/08 06:47:19;;;;;;;5.85;2.13;;;20.10;99.90;;;;;;5075802;28;20103;-66
2021/07/08 06:49:45;;;;;;;5.05;1.83;;;20.10;99.90;;;;;;5074985;28;20032;-67
2021/07/08 06:52:12;;;;;;;4.68;1.95;;;20.20;99.90;;;;;;5075848;28;20028;-65
2021/07/08 06:54:38;;;;;;;3.92;1.70;;;20.30;99.90;;;;;;5074335;28;20033;-65
2021/07/08 06:57:04;;;;;;;6.60;1.95;;;20.40;99.90;;;;;;5075902;28;20508;-65
2021/07/08 06:59:30;;;;;;;4.38;2.13;;;20.50;99.90;;;;;;5075781;28;20478;-65
2021/07/08 07:01:56;;;;;;;11.05;2.20;;;20.60;99.90;;;;;;5074130;28;20166;-65
2021/07/08 07:04:21;;;;;;;3.15;1.45;;;20.70;99.90;;;;;;5076506;28;20397;-65
2021/07/08 07:06:48;;;;;;;3.00;1.58;;;20.80;99.90;;;;;;5076457;28;20020;-65
2021/07/08 07:09:13;;;;;;;3.30;1.90;;;20.70;99.90;;;;;;5076923;28;20508;-65
2021/07/08 07:11:39;;;;;;;5.25;1.70;;;20.70;99.90;;;;;;5074974;28;20111;-64
2021/07/08 07:14:05;;;;;;;2.97;1.50;;;20.60;99.90;;;;;;5075979;28;20036;-64
2021/07/08 07:16:31;;;;;;;2.70;1.50;;;20.70;99.90;;;;;;5074421;28;20424;-64
2021/07/08 07:18:57;;;;;;;;;;;21.00;99.90;;;;;;5076030;28;20033;-63
2021/07/08 07:21:23;;;;;;;3.53;1.50;;;21.20;99.90;;;;;;5075546;28;19918;-64
2021/07/08 07:23:49;;;;;;;2.05;1.45;;;21.30;99.90;;;;;;5075760;28;20422;-64
2021/07/08 07:26:16;;;;;;;3.85;1.50;;;21.60;99.90;;;;;;5075400;28;20048;-64
2021/07/08 07:28:42;;;;;;;6.35;1.70;;;21.60;99.90;;;;;;5074177;28;20075;-64
2021/07/08 07:31:08;;;;;;;3.88;1.35;;;21.60;99.90;;;;;;5075804;28;20369;-63
2021/07/08 07:33:33;;;;;;;2.95;1.30;;;21.60;99.90;;;;;;5075263;28;20036;-64
2021/07/08 07:35:59;;;;;;;3.25;1.48;;;21.50;99.90;;;;;;5075411;28;20025;-66
2021/07/08 07:38:25;;;;;;;4.63;1.60;;;21.60;99.90;;;;;;5075252;28;20116;-65
2021/07/08 07:40:51;;;;;;;5.32;1.83;;;21.80;99.90;;;;;;5074195;28;20024;-66
2021/07/08 07:43:17;;;;;;;1.70;1.35;;;21.90;99.90;;;;;;5075433;28;20029;-65
2021/07/08 07:45:42;;;;;;;4.65;1.85;;;22.20;99.90;;;;;;5075156;28;20099;-64
2021/07/08 07:48:09;;;;;;;;;;;22.30;99.90;;;;;;5075798;28;20036;-65
2021/07/08 07:50:35;;;;;;;6.70;1.80;;;22.30;99.90;;;;;;5075347;28;19954;-65
2021/07/08 07:53:00;;;;;;;;;;;22.40;99.90;;;;;;5075723;28;20481;-67
2021/07/08 07:55:27;;;;;;;2.55;1.30;;;22.60;99.90;;;;;;5075446;28;19904;-66
2021/07/08 07:57:58;;;;;;;3.35;1.63;;;22.80;99.90;;;;;;5075386;28;20031;-66
2021/07/08 08:00:25;;;;;;;3.58;1.70;;;22.70;99.90;;;;;;5075195;28;20393;-63
2021/07/08 08:02:52;;;;;;;4.43;1.23;;;22.60;99.90;;;;;;5074871;28;20012;-64
2021/07/08 08:10:28;;;;;;;2.65;1.50;;;22.60;99.90;;;;;;5075028;28;20090;-62
2021/07/08 08:12:54;;;;;;;3.60;1.58;;;22.60;99.90;;;;;;5074838;28;20020;-63
2021/07/08 08:15:20;;;;;;;2.58;1.27;;;22.50;99.90;;;;;;5074952;28;20078;-63
2021/07/08 08:17:47;;;;;;;2.35;1.10;;;22.40;99.90;;;;;;5074754;28;20123;-62
2021/07/08 08:20:15;;;;;;;3.03;1.42;;;22.30;99.90;;;;;;5074228;28;20062;-63
2021/07/08 08:22:41;;;;;;;3.58;1.50;;;22.30;99.90;;;;;;5074709;28;20030;-63
2021/07/08 08:25:09;;;;;;;2.22;1.10;;;22.20;99.90;;;;;;5074408;28;20025;-62
2021/07/08 08:27:34;;;;;;;3.17;1.10;;;22.10;99.90;;;;;;5072919;28;20362;-65
2021/07/08 08:30:00;;;;;;;14.60;1.77;;;22.10;99.90;;;;;;5074177;28;20074;-64
2021/07/08 08:32:26;;;;;;;;;;;22.00;99.90;;;;;;5073932;28;20055;-63
2021/07/08 08:34:51;;;;;;;4.13;1.50;;;22.00;99.90;;;;;;5073874;28;19904;-65
2021/07/08 08:37:17;;;;;;;3.38;1.40;;;21.90;99.90;;;;;;5074010;28;20369;-65
2021/07/08 08:39:43;;;;;;;3.65;1.60;;;21.90;99.90;;;;;;5073860;28;20122;-65
2021/07/08 08:42:09;;;;;;;6.35;1.90;;;22.00;99.90;;;;;;5073969;28;20024;-64
2021/07/08 08:44:35;;;;;;;;;;;22.00;99.90;;;;;;5074441;28;20032;-64
2021/07/08 08:47:01;;;;;;;3.15;1.50;;;21.90;99.90;;;;;;5073708;28;19935;-63
2021/07/08 08:49:27;;;;;;;5.65;3.67;;;21.80;99.90;;;;;;5074183;28;20461;-65
2021/07/08 08:51:53;;;;;;;3.88;2.00;;;21.80;99.90;;;;;;5073357;28;20072;-62
2021/07/08 08:54:19;;;;;;;2.63;1.63;;;21.70;99.90;;;;;;5073590;28;20111;-62
2021/07/08 08:56:46;;;;;;;5.78;1.80;;;21.60;99.90;;;;;;5073914;28;20095;-63
2021/07/08 08:59:11;;;;;;;6.70;2.05;;;21.50;99.90;;;;;;5073732;28;20115;-68
2021/07/08 09:01:37;;;;;;;6.70;2.50;;;21.50;99.90;;;;;;5073190;28;20112;-64
2021/07/08 09:04:03;;;;;;;4.07;2.20;;;21.50;99.90;;;;;;5072378;28;20036;-66
2021/07/08 09:06:37;;;;;;;5.68;2.20;;;21.40;99.90;;;;;;5072149;28;20054;-65
2021/07/08 09:09:11;;;;;;;2.85;1.90;;;21.40;99.90;;;;;;5073592;28;20470;-64
2021/07/08 09:11:38;;;;;;;4.38;2.38;;;21.30;99.90;;;;;;5073357;28;20523;-64
2021/07/08 09:14:07;;;;;;;3.88;2.63;;;21.20;99.90;;;;;;5073596;28;20028;-64
2021/07/08 09:16:34;;;;;;;3.75;2.20;;;21.10;99.90;;;;;;5073636;28;20031;-64
2021/07/08 09:19:08;;;;;;;3.03;2.35;;;21.10;99.90;;;;;;5072075;28;20020;-65
2021/07/08 09:21:37;;;;;;;4.90;2.70;;;21.10;99.90;;;;;;5073517;28;20029;-64
2021/07/08 09:24:14;;;;;;;7.20;2.78;;;21.00;99.90;;;;;;5073802;28;20044;-63
2021/07/08 09:26:55;;;;;;;7.03;2.45;;;20.90;99.90;;;;;;5073337;28;20075;-64
2021/07/08 09:29:24;;;;;;;4.60;2.55;;;20.90;99.90;;;;;;5073705;28;20051;-64
2021/07/08 09:32:05;;;;;;;6.57;2.70;;;20.70;99.90;;;;;;5073830;28;20034;-65
2021/07/08 09:34:33;;;;;;;6.72;3.20;;;20.60;99.90;;;;;;5073874;28;20544;-64
2021/07/08 09:37:30;;;;;;;5.30;3.20;;;20.60;99.90;;;;;;5073564;28;20060;-63
2021/07/08 09:40:01;;;;;;;8.07;3.13;;;20.50;99.90;;;;;;5070692;28;20040;-64
2021/07/08 09:42:38;;;;;;;13.13;3.10;;;20.40;99.90;;;;;;5073682;28;20190;-63
2021/07/08 09:45:15;;;;;;;6.85;3.40;;;20.40;99.90;;;;;;5072836;28;20385;-64
2021/07/08 09:47:42;;;;;;;4.63;3.30;;;20.50;99.90;;;;;;5073118;28;20177;-63
2021/07/08 09:50:11;;;;;;;7.03;2.80;;;20.50;99.90;;;;;;5073789;28;20121;-63
2021/07/08 09:52:38;;;;;;;3.78;2.80;;;20.40;99.90;;;;;;5073475;28;20035;-60
2021/07/08 09:55:30;;;;;;;6.05;3.40;;;20.40;99.90;;;;;;5072200;28;20025;-63
2021/07/08 09:58:04;;;;;;;4.75;3.45;;;20.30;99.90;;;;;;5072966;28;20060;-63
2021/07/08 10:00:32;;;;;;;6.97;4.10;;;20.20;99.90;;;;;;5072995;28;20027;-63
2021/07/08 10:03:00;;;;;;;4.60;3.90;;;20.00;99.90;;;;;;5072874;28;20418;-65
2021/07/08 10:05:26;;;;;;;5.32;3.50;;;19.90;99.90;;;;;;5073165;28;20068;-64
2021/07/08 10:07:52;;;;;;;5.25;3.67;;;19.90;99.90;;;;;;5071418;28;20457;-64
2021/07/08 10:10:18;;;;;;;6.68;4.50;;;19.90;99.90;;;;;;5072695;28;20134;-64
2021/07/08 10:12:46;;;;;;;7.25;4.22;;;19.80;99.90;;;;;;5072920;28;20503;-67
2021/07/08 10:15:13;;;;;;;4.30;3.83;;;19.80;99.90;;;;;;5072939;28;20481;-67
2021/07/08 10:17:40;;;;;;;4.97;3.67;;;19.80;99.90;;;;;;5072807;28;20623;-64
2021/07/08 10:20:09;;;;;;;5.80;4.07;;;19.80;99.90;;;;;;5073153;28;20484;-63
2021/07/08 10:22:36;;;;;;;4.97;4.30;;;19.90;99.90;;;;;;5072722;28;20017;-63
2021/07/08 10:25:02;;;;;;;;;;;19.90;99.90;;;;;;5073645;28;20024;-63
2021/07/08 10:27:29;;;;;;;6.35;4.38;;;19.90;99.90;;;;;;5073365;28;19912;-63
2021/07/08 10:29:57;;;;;;;7.13;4.43;;;19.80;99.90;;;;;;5073635;28;20021;-64
2021/07/08 10:32:23;;;;;;;5.88;4.93;;;19.80;99.90;;;;;;5072943;28;20060;-63
2021/07/08 10:34:50;;;;;;;8.05;5.22;;;19.90;99.90;;;;;;5071356;28;20020;-63
2021/07/08 10:37:25;;;;;;;8.32;6.05;;;19.90;99.90;;;;;;5072701;28;20435;-64
2021/07/08 10:39:51;;;;;;;8.77;6.18;;;19.90;99.90;;;;;;5071234;28;20481;-64
2021/07/08 10:42:40;;;;;;;9.13;6.65;;;19.90;99.90;;;;;;5072378;28;20035;-63
2021/07/08 10:45:06;;;;;;;8.27;6.35;;;19.90;99.90;;;;;;5072608;28;20025;-63
2021/07/08 10:47:33;;;;;;;10.20;6.95;;;19.90;99.90;;;;;;5072843;28;20515;-64
2021/07/08 10:50:00;;;;;;;10.68;7.13;;;19.90;99.90;;;;;;5072844;28;20096;-64
2021/07/08 10:52:44;;;;;;;10.40;7.55;;;19.90;99.90;;;;;;5072433;28;20025;-64
2021/07/08 10:55:10;;;;;;;12.07;7.32;;;19.90;99.90;;;;;;5073242;28;20330;-65
2021/07/08 10:57:38;;;;;;;9.23;6.90;;;19.80;99.90;;;;;;5076645;28;20422;-65
2021/07/08 11:00:31;;;;;;;9.18;7.15;;;19.90;99.90;;;;;;5076801;28;20043;-64
2021/07/08 11:02:57;;;;;;;8.52;6.18;;;19.90;99.90;;;;;;5076042;28;20086;-64
2021/07/08 11:05:55;;;;;;;8.52;5.57;;;19.90;99.90;;;;;;5076679;28;20028;-64
2021/07/08 11:08:45;;;;;;;9.10;6.32;;;19.90;99.90;;;;;;5074824;28;20025;-64
2021/07/08 11:11:22;;;;;;;7.97;6.70;;;19.90;99.90;;;;;;5076584;28;20100;-64
2021/07/08 11:13:53;;;;;;;12.20;6.28;;;19.90;99.90;;;;;;5075989;28;20031;-64
2021/07/08 11:16:44;;;;;;;12.00;7.65;;;19.90;99.90;;;;;;5076061;28;20060;-65
2021/07/08 11:19:11;;;;;;;9.30;5.88;;;19.90;99.90;;;;;;5076755;28;20020;-66
2021/07/08 11:21:49;;;;;;;7.22;5.60;;;19.80;99.90;;;;;;5076086;28;20020;-66
2021/07/08 11:24:27;;;;;;;7.15;6.25;;;19.80;99.90;;;;;;5076235;28;20067;-65
2021/07/08 11:26:57;;;;;;;8.55;6.05;;;19.70;99.90;;;;;;5075959;28;20021;-65
2021/07/08 11:29:32;;;;;;;8.43;5.53;;;19.70;99.90;;;;;;5076266;28;20021;-66
2021/07/08 11:31:58;;;;;;;7.63;6.68;;;19.60;99.90;;;;;;5076185;28;20122;-64
2021/07/08 11:34:25;;;;;;;6.75;5.65;;;19.50;99.90;;;;;;5075443;28;20070;-64
2021/07/08 11:36:56;;;;;;;8.43;5.88;;;19.50;99.90;;;;;;5075591;28;20036;-65
2021/07/08 11:39:26;;;;;;;7.05;5.82;;;19.50;99.90;;;;;;5075340;28;20040;-65
2021/07/08 11:41:56;;;;;;;7.90;6.88;;;19.50;99.90;;;;;;5075485;28;20122;-64
2021/07/08 11:44:30;;;;;;;8.30;5.82;;;19.60;99.90;;;;;;5075157;28;20016;-64
2021/07/08 11:46:59;;;;;;;5.97;5.28;;;19.70;99.90;;;;;;5073895;28;20043;-64
2021/07/08 11:49:27;;;;;;;5.68;4.82;;;19.80;99.90;;;;;;5075128;28;20017;-64
2021/07/08 11:51:53;;;;;;;10.13;4.95;;;20.00;99.90;;;;;;5075937;28;20376;-64
2021/07/08 11:54:18;;;;;;;7.15;3.83;;;20.10;99.90;;;;;;5075285;28;20028;-64
2021/07/08 11:56:44;;;;;;;4.45;3.30;;;20.20;99.90;;;;;;5074855;28;20047;-65
2021/07/08 11:59:09;;;;;;;4.00;3.20;;;20.30;99.90;;;;;;5074895;28;20050;-63
2021/07/08 12:01:40;;;;;;;4.53;3.03;;;20.40;99.90;;;;;;5074992;28;20028;-64
2021/07/08 12:04:05;;;;;;;3.40;2.50;;;20.30;99.90;;;;;;5074940;28;20086;-63
2021/07/08 12:06:31;;;;;;;6.57;3.67;;;20.20;99.90;;;;;;5075338;28;20020;-65
2021/07/08 12:09:05;;;;;;;4.43;3.38;;;20.20;99.90;;;;;;5074189;28;20047;-64
2021/07/08 12:11:38;;;;;;;7.63;3.60;;;20.20;99.90;;;;;;5074912;28;20024;-63
2021/07/08 12:14:14;;;;;;;4.20;3.08;;;20.20;99.90;;;;;;5074811;28;20085;-64
2021/07/08 12:16:44;;;;;;;;;;;20.20;99.90;;;;;;5074851;28;20052;-63
2021/07/08 12:19:26;;;;;;;2.72;2.35;;;20.10;99.90;;;;;;5074479;28;19912;-65
2021/07/08 12:21:54;;;;;;;5.18;3.72;;;20.10;99.90;;;;;;5074131;28;20397;-66
2021/07/08 12:24:22;;;;;;;5.28;3.83;;;20.10;99.90;;;;;;5074452;28;20476;-66
2021/07/08 12:26:48;;;;;;;4.00;3.13;;;20.00;99.90;;;;;;5074475;28;20166;-65
2021/07/08 12:29:24;;;;;;;5.68;4.10;;;20.00;99.90;;;;;;5074174;28;20519;-66
2021/07/08 12:31:58;;;;;;;5.10;3.20;;;20.00;99.90;;;;;;5074628;28;20103;-66
2021/07/08 12:34:51;;;;;;;3.55;2.92;;;19.90;99.90;;;;;;5074311;28;20532;-67
2021/07/08 12:37:25;;;;;;;5.05;3.53;;;19.90;99.90;;;;;;5074208;28;20032;-67
2021/07/08 12:40:12;;;;;;;6.95;2.90;;;19.80;99.90;;;;;;5074503;28;20020;-67
2021/07/08 12:42:43;;;;;;;3.80;3.22;;;19.80;99.90;;;;;;5073067;28;20028;-68
2021/07/08 12:45:14;;;;;;;4.95;3.20;;;19.70;99.90;;;;;;5074345;28;20469;-67
2021/07/08 12:47:43;;;;;;;3.80;2.65;;;19.60;99.90;;;;;;5072588;28;20029;-67
2021/07/08 12:50:10;;;;;;;4.55;2.95;;;19.50;99.90;;;;;;5072634;28;20036;-67
2021/07/08 12:52:37;;;;;;;3.45;2.63;;;19.50;99.90;;;;;;5074154;28;20023;-67
2021/07/08 12:55:05;;;;;;;5.35;3.95;;;19.50;99.90;;;;;;5073539;28;20020;-68
2021/07/08 12:57:31;;;;;;;4.60;3.50;;;19.50;99.90;;;;;;5073980;28;20024;-67
2021/07/08 13:00:07;;;;;;;4.55;3.05;;;19.50;99.90;;;;;;5073488;28;20048;-67